Time;durP1;ratioP1;P1;durP2;ratioP2;P2;SDS_P1;SDS_P2;PMS_P1;PMS_P2;Temp;Humidity;BMP_temperature;BMP_pressure;BME280_temperature;BME280_humidity;BME280_pressure;Samples;Min_cycle;Max_cycle;Signal;HPM_P1;HPM_P2
2023/02/06 13:55:58;;;;;;;;;;;;;;;5.02;56.42;101809.69;1083486;39;20141;31
2023/02/06 13:58:59;;;;;;;;;;;;;;;4.88;56.20;101815.59;1087800;54;19973;-80
2023/02/06 14:00:12;;;;;;;;;;;;;;;4.67;56.31;101818.19;1087931;54;19943;-80
2023/02/06 14:01:21;;;;;;;;;;;;;;;4.71;56.93;101814.50;1087969;54;19934;-80
2023/02/06 14:02:27;;;;;;;;;;;;;;;4.62;56.61;101820.19;1088172;54;19950;-80
2023/02/06 14:21:57;;;;;;;;;;;;;;;4.49;56.39;101827.75;1091086;46;19942;-79
2023/02/06 14:23:06;;;;;;;;;;;;;;;4.42;55.99;101828.91;1088116;54;19942;-81
2023/02/06 14:24:24;;;;;;;;;;;;;;;4.43;56.24;101826.22;1088096;54;19945;-78
2023/02/06 14:25:43;;;;;;;;;;;;;;;4.45;56.45;101828.81;1088204;54;19923;-80
2023/02/06 14:26:54;;;;;;;;;;;;;;;4.46;56.23;101826.09;1088280;54;19943;-81
2023/02/06 14:28:05;;;;;;;;;;;;;;;4.43;56.80;101828.88;1088139;54;19942;-82
2023/02/06 14:29:19;;;;;;;;;;;;;;;4.42;56.92;101835.09;1088225;54;20312;-82
2023/02/06 14:30:28;;;;;;;;;;;;;;;4.47;56.98;101832.25;1088600;46;19927;-83
2023/02/06 14:31:39;;;;;;;;;;;;;;;4.50;57.07;101848.00;1088204;54;19934;-83
2023/02/06 14:32:47;;;;;;;;;;;;;;;4.50;56.82;101851.53;1091761;46;19951;-80
2023/02/06 14:34:01;;;;;;;;;;;;;;;4.41;57.10;101843.06;1088041;54;19946;-78
2023/02/06 14:35:16;;;;;;;;;;;;;;;4.44;57.42;101835.03;1089281;46;19939;-79
2023/02/06 14:36:45;;;;;;;;;;;;;;;4.48;56.96;101844.59;1088611;46;19963;-81
2023/02/06 14:38:08;;;;;;;;;;;;;;;4.37;57.76;101851.16;1088136;54;19943;-78
2023/02/06 14:39:26;;;;;;;;;;;;;;;4.47;57.58;101848.16;1091561;46;19997;-78
2023/02/06 14:40:32;;;;;;;;;;;;;;;4.46;57.71;101851.72;1087947;54;19947;-80
2023/02/06 14:41:38;;;;;;;;;;;;;;;4.41;57.55;101843.97;1090347;46;19949;-80
2023/02/06 14:42:43;;;;;;;;;;;;;;;4.40;57.76;101844.00;1087979;54;19943;-80
2023/02/06 14:43:49;;;;;;;;;;;;;;;4.43;57.94;101849.19;1088549;46;19926;-79
2023/02/06 14:44:56;;;;;;;;;;;;;;;4.46;57.33;101846.44;1087969;54;19950;-78
2023/02/06 14:45:59;;;;;;;;;;;;;;;4.35;57.64;101847.72;1088079;47;19976;-79
2023/02/06 14:47:02;;;;;;;;;;;;;;;4.37;57.86;101845.88;1090380;46;19943;-78
2023/02/06 14:48:07;;;;;;;;;;;;;;;4.30;57.86;101840.88;1088033;54;19942;-79
2023/02/06 14:49:17;;;;;;;;;;;;;;;4.28;57.77;101848.00;1088917;46;19939;-80
2023/02/06 14:50:23;;;;;;;;;;;;;;;4.27;57.71;101841.84;1088131;54;19950;-78
2023/02/06 14:51:30;;;;;;;;;;;;;;;4.25;58.10;101846.34;1090834;46;20006;-78
2023/02/06 14:52:32;;;;;;;;;;;;;;;4.22;57.90;101842.03;1087948;54;19950;-78
2023/02/06 14:53:48;;;;;;;;;;;;;;;;;;;;;
2023/02/06 14:55:12;;;;;;;;;;;;;;;4.21;57.59;101837.66;1088120;54;20917;-78
2023/02/06 14:56:21;;;;;;;;;;;;;;;4.27;57.82;101841.84;1088000;54;19938;-78
2023/02/06 14:57:25;;;;;;;;;;;;;;;4.34;57.91;101842.50;1088114;54;19993;-78
2023/02/06 14:58:35;;;;;;;;;;;;;;;4.44;57.54;101843.81;1088721;46;19953;-79
2023/02/06 14:59:50;;;;;;;;;;;;;;;4.48;57.55;101850.72;1088030;54;19931;-78
2023/02/06 15:00:54;;;;;;;;;;;;;;;4.50;57.36;101835.66;1088138;54;19938;-78
2023/02/06 15:02:01;;;;;;;;;;;;;;;4.47;57.39;101837.56;1088117;54;20219;-79
2023/02/06 15:17:20;;;;;;;;;;;;;;;4.59;56.05;101822.94;1087763;54;19945;-79
2023/02/06 15:18:21;;;;;;;;;;;;;;;4.51;55.77;101817.94;1087815;54;19938;-80
2023/02/06 15:19:26;;;;;;;;;;;;;;;4.53;55.49;101816.13;1088111;54;19938;-80
2023/02/06 15:20:33;;;;;;;;;;;;;;;4.57;56.10;101816.84;1089443;46;19943;-79
2023/02/06 15:21:37;;;;;;;;;;;;;;;4.57;55.71;101820.38;1089255;39;20145;-79
2023/02/06 15:22:38;;;;;;;;;;;;;;;4.59;55.88;101815.00;1089591;39;20160;-79
2023/02/06 15:23:49;;;;;;;;;;;;;;;4.53;55.54;101816.13;1088040;54;19938;-79
2023/02/06 15:24:59;;;;;;;;;;;;;;;4.48;55.48;101808.34;1088113;54;19942;-80
2023/02/06 15:26:02;;;;;;;;;;;;;;;4.40;55.76;101805.16;1088137;54;19962;-79
2023/02/06 15:27:17;;;;;;;;;;;;;;;4.39;55.72;101808.72;1088038;54;19957;-79
2023/02/06 15:28:22;;;;;;;;;;;;;;;4.33;55.60;101811.63;1088077;54;19939;-79
2023/02/06 15:29:28;;;;;;;;;;;;;;;4.37;55.81;101805.28;1088640;46;19939;-80
2023/02/06 15:30:33;;;;;;;;;;;;;;;4.43;56.10;101814.75;1088486;46;19950;-79
2023/02/06 15:31:37;;;;;;;;;;;;;;;4.51;56.23;101815.31;1088536;46;19943;-81
2023/02/06 15:32:45;;;;;;;;;;;;;;;4.48;55.87;101813.66;1088074;54;19939;-79
2023/02/06 15:33:50;;;;;;;;;;;;;;;4.42;55.58;101805.97;1088108;54;19942;-79
2023/02/06 15:34:51;;;;;;;;;;;;;;;4.37;55.15;101808.78;1088079;54;19941;-80
2023/02/06 15:35:56;;;;;;;;;;;;;;;4.33;55.80;101812.47;1088396;46;20046;-79
2023/02/06 15:36:57;;;;;;;;;;;;;;;4.34;55.73;101810.72;1088079;54;19939;-81
2023/02/06 15:38:05;;;;;;;;;;;;;;;4.37;56.00;101811.44;1088029;54;19958;-81
2023/02/06 15:39:09;;;;;;;;;;;;;;;4.39;56.04;101814.03;1089711;46;19939;-79
2023/02/06 15:40:17;;;;;;;;;;;;;;;4.37;55.81;101816.75;1088057;54;19939;-80
2023/02/06 15:41:21;;;;;;;;;;;;;;;4.40;55.74;101821.03;1088105;54;19998;-78
2023/02/06 15:42:23;;;;;;;;;;;;;;;4.40;55.72;101815.75;1088049;54;19943;-79
2023/02/06 15:43:27;;;;;;;;;;;;;;;4.47;55.73;101814.56;1088050;54;19942;-79
2023/02/06 15:44:34;;;;;;;;;;;;;;;4.43;55.27;101815.63;1088056;54;19946;-79
2023/02/06 15:45:36;;;;;;;;;;;;;;;4.41;54.75;101812.19;1088768;46;19939;-80
2023/02/06 15:46:41;;;;;;;;;;;;;;;4.37;54.75;101815.88;1088047;54;20002;-80
2023/02/06 15:47:44;;;;;;;;;;;;;;;4.38;54.96;101807.00;1089909;46;19942;-80
2023/02/06 15:48:51;;;;;;;;;;;;;;;4.41;55.14;101817.47;1088025;54;19979;-79
2023/02/06 15:49:59;;;;;;;;;;;;;;;4.42;55.02;101810.38;1088590;46;19934;-79
2023/02/06 15:51:04;;;;;;;;;;;;;;;4.47;55.11;101819.88;1088107;54;19995;-79
2023/02/06 15:52:05;;;;;;;;;;;;;;;4.45;54.84;101828.81;1088019;54;19938;-79
2023/02/06 15:53:21;;;;;;;;;;;;;;;4.47;54.67;101817.22;1087980;54;19974;-79
2023/02/06 15:54:33;;;;;;;;;;;;;;;4.42;54.58;101813.03;1088054;54;19947;-80
2023/02/06 15:55:44;;;;;;;;;;;;;;;4.39;54.45;101823.75;1088296;46;19938;-79
2023/02/06 15:56:50;;;;;;;;;;;;;;;4.38;54.45;101825.53;1088888;46;19987;-78
2023/02/06 15:57:51;;;;;;;;;;;;;;;4.32;54.75;101829.28;1088844;47;19942;-80
2023/02/06 15:58:57;;;;;;;;;;;;;;;4.32;54.91;101821.34;1087963;54;19951;-81
2023/02/06 15:59:58;;;;;;;;;;;;;;;4.24;54.88;101820.78;1088073;54;19963;-80
2023/02/06 16:01:04;;;;;;;;;;;;;;;4.26;54.97;101823.34;1088324;46;19945;-80
2023/02/06 16:02:06;;;;;;;;;;;;;;;4.26;54.58;101823.34;1088102;54;19938;-79
2023/02/06 16:03:19;;;;;;;;;;;;;;;4.26;54.63;101820.72;1088360;46;19954;-79
2023/02/06 16:04:22;;;;;;;;;;;;;;;4.35;54.90;101815.94;1090125;46;19949;-79
2023/02/06 16:05:28;;;;;;;;;;;;;;;4.39;54.97;101811.38;1088015;54;19943;-79
2023/02/06 16:06:29;;;;;;;;;;;;;;;4.46;55.08;101812.00;1089225;46;19942;-79
2023/02/06 16:07:34;;;;;;;;;;;;;;;4.37;53.38;101814.09;1088028;54;19927;-79
2023/02/06 16:08:36;;;;;;;;;;;;;;;4.33;53.57;101819.56;1088416;47;19943;-80
2023/02/06 16:09:42;;;;;;;;;;;;;;;4.26;52.77;101818.06;1087847;54;26797;-80
2023/02/06 16:10:50;;;;;;;;;;;;;;;4.22;52.84;101823.50;1088024;54;19942;-80
2023/02/06 16:11:52;;;;;;;;;;;;;;;4.13;53.01;101821.22;1087952;54;19927;-80
2023/02/06 16:12:57;;;;;;;;;;;;;;;4.17;53.43;101820.16;1087993;47;19951;-80
2023/02/06 16:13:59;;;;;;;;;;;;;;;4.22;53.38;101820.84;1087922;54;19942;-80
2023/02/06 16:15:03;;;;;;;;;;;;;;;4.28;53.54;101825.06;1088035;54;19943;-79
2023/02/06 19:07:21;;;;;;;;;;;;;;;3.03;61.98;101819.03;1088068;54;19927;-82
2023/02/06 19:11:59;;;;;;;;;;;;;;;3.05;61.29;101822.47;1088487;54;19935;-84
2023/02/06 19:13:02;;;;;;;;;;;;;;;3.04;61.36;101824.28;1092098;39;20560;-83
2023/02/06 19:14:08;;;;;;;;;;;;;;;2.95;61.42;101832.53;1088580;39;20470;-82
2023/02/06 19:15:13;;;;;;;;;;;;;;;2.96;61.61;101828.97;1088249;54;19943;-82
2023/02/06 19:16:17;;;;;;;;;;;;;;;2.96;61.19;101837.75;1088479;54;19941;-82
2023/02/06 19:17:21;;;;;;;;;;;;;;;2.99;61.33;101825.34;1088543;54;19942;-83
2023/02/06 19:18:22;;;;;;;;;;;;;;;3.04;61.15;101831.31;1088391;54;19969;-81
2023/02/06 19:19:26;;;;;;;;;;;;;;;2.98;61.43;101832.41;1088410;54;19931;-81
2023/02/06 19:20:27;;;;;;;;;;;;;;;2.94;61.66;101831.63;1088006;54;19927;-82
2023/02/06 19:21:31;;;;;;;;;;;;;;;2.97;61.49;101825.41;1088420;46;19942;-81
2023/02/06 19:22:41;;;;;;;;;;;;;;;2.88;61.70;101829.22;1088241;54;20008;-82
2023/02/06 19:23:46;;;;;;;;;;;;;;;2.81;61.91;101827.69;1090078;39;20388;-81
2023/02/06 19:24:47;;;;;;;;;;;;;;;2.80;61.86;101824.19;1088901;39;20597;-82
2023/02/06 19:25:58;;;;;;;;;;;;;;;2.83;61.98;101830.28;1088317;46;20495;-82
2023/02/06 19:27:01;;;;;;;;;;;;;;;2.79;62.38;101834.81;1088400;54;20251;-82
2023/02/06 19:28:15;;;;;;;;;;;;;;;2.77;62.21;101831.34;1088619;54;19942;-85
2023/02/06 19:29:22;;;;;;;;;;;;;;;2.75;62.40;101833.16;1091815;46;19946;-83
2023/02/06 19:30:26;;;;;;;;;;;;;;;2.69;62.79;101836.00;1088013;54;20006;-82
2023/02/06 19:31:34;;;;;;;;;;;;;;;2.72;62.79;101841.22;1088095;54;19949;-81
2023/02/06 19:32:38;;;;;;;;;;;;;;;2.76;62.38;101832.25;1089857;39;20520;-81
2023/02/06 19:33:50;;;;;;;;;;;;;;;2.77;62.38;101841.91;1088296;54;19947;-83
2023/02/06 19:34:53;;;;;;;;;;;;;;;2.74;62.82;101839.38;1087965;54;19958;-82
2023/02/06 19:35:57;;;;;;;;;;;;;;;2.71;62.99;101844.75;1088231;47;20704;-80
2023/02/06 19:37:01;;;;;;;;;;;;;;;2.74;62.74;101845.53;1088022;54;19943;-81
2023/02/06 19:38:02;;;;;;;;;;;;;;;2.77;62.69;101844.56;1088136;54;19947;-82
2023/02/06 19:39:08;;;;;;;;;;;;;;;2.75;62.81;101846.38;1088353;54;19949;-82
2023/02/06 19:40:12;;;;;;;;;;;;;;;2.69;62.78;101842.19;1088278;54;19985;-82
2023/02/06 19:41:26;;;;;;;;;;;;;;;2.71;63.06;101850.03;1088300;54;19958;-82
2023/02/06 19:42:32;;;;;;;;;;;;;;;2.73;63.29;101848.22;1088158;54;20637;-81
2023/02/06 19:43:34;;;;;;;;;;;;;;;2.76;62.72;101840.19;1088300;54;20630;-82
2023/02/06 19:44:40;;;;;;;;;;;;;;;2.73;63.18;101842.94;1088302;54;19938;-81
2023/02/06 19:45:41;;;;;;;;;;;;;;;2.71;63.18;101839.47;1088077;54;19974;-79
2023/02/06 19:46:46;;;;;;;;;;;;;;;2.64;63.14;101839.69;1088120;54;20027;-81
2023/02/06 19:47:47;;;;;;;;;;;;;;;2.63;63.46;101837.97;1088149;54;19935;-81
2023/02/06 19:48:52;;;;;;;;;;;;;;;2.57;63.51;101838.13;1088213;54;19989;-81
2023/02/06 19:49:56;;;;;;;;;;;;;;;2.58;63.63;101847.78;1088344;54;19943;-83
2023/02/06 19:51:03;;;;;;;;;;;;;;;2.57;63.83;101826.72;1088459;54;19998;-81
2023/02/06 19:52:05;;;;;;;;;;;;;;;2.52;63.88;101829.50;1088179;54;19942;-82
2023/02/06 19:53:10;;;;;;;;;;;;;;;2.54;63.98;101832.09;1088133;54;19953;-80
2023/02/06 19:54:11;;;;;;;;;;;;;;;2.50;64.02;101831.34;1088041;54;19966;-83
2023/02/06 19:55:15;;;;;;;;;;;;;;;2.47;64.07;101834.06;1087942;54;19947;-81
2023/02/06 19:56:20;;;;;;;;;;;;;;;2.42;63.97;101841.28;1087695;54;19950;-79
2023/02/06 19:57:24;;;;;;;;;;;;;;;2.44;64.14;101842.09;1099654;39;20561;-84
2023/02/06 19:58:33;;;;;;;;;;;;;;;2.40;64.50;101846.59;1088542;54;19931;-83
2023/02/06 19:59:37;;;;;;;;;;;;;;;2.43;64.41;101850.94;1088540;54;19939;-83
2023/02/06 20:00:40;;;;;;;;;;;;;;;2.35;64.44;101840.59;1091079;46;19938;-81
2023/02/06 20:01:43;;;;;;;;;;;;;;;2.31;64.50;101837.19;1091295;46;19923;-83
2023/02/06 20:02:47;;;;;;;;;;;;;;;2.29;64.73;101844.28;1088449;54;19934;-81
2023/02/06 20:03:48;;;;;;;;;;;;;;;2.31;64.72;101854.81;1088326;54;19951;-81
2023/02/06 20:04:58;;;;;;;;;;;;;;;2.30;64.38;101851.28;1088111;54;20014;-81
2023/02/06 20:05:59;;;;;;;;;;;;;;;2.27;64.73;101867.22;1088133;54;19962;-79
2023/02/06 20:07:04;;;;;;;;;;;;;;;2.30;64.64;101861.00;1087461;54;19950;-82
2023/02/06 20:08:07;;;;;;;;;;;;;;;2.30;64.82;101874.19;1087438;54;19953;-81
2023/02/06 20:09:12;;;;;;;;;;;;;;;2.28;65.02;101874.22;1087447;54;20006;-80
2023/02/06 20:10:16;;;;;;;;;;;;;;;2.36;64.81;101876.63;1087493;54;19951;-82
2023/02/06 20:11:18;;;;;;;;;;;;;;;2.34;64.66;101876.69;1087163;54;19943;-80
2023/02/06 20:12:22;;;;;;;;;;;;;;;2.40;64.60;101872.13;1087958;54;19949;-81
2023/02/06 20:13:23;;;;;;;;;;;;;;;2.45;64.68;101880.78;1087561;54;19938;-82
2023/02/06 20:14:30;;;;;;;;;;;;;;;2.43;64.65;101878.16;1087879;54;19950;-82
2023/02/06 20:15:38;;;;;;;;;;;;;;;2.44;64.63;101874.63;1087739;54;19950;-80
2023/02/06 20:16:40;;;;;;;;;;;;;;;2.30;64.85;101866.28;1087997;54;19946;-80
2023/02/06 20:17:45;;;;;;;;;;;;;;;2.29;65.05;101873.31;1087988;54;19979;-81
2023/02/06 20:18:46;;;;;;;;;;;;;;;2.27;65.17;101861.94;1087951;54;19950;-81
2023/02/06 20:19:50;;;;;;;;;;;;;;;2.24;65.03;101862.06;1088231;47;20602;-81
2023/02/06 20:20:51;;;;;;;;;;;;;;;2.20;65.36;101856.91;1088249;54;19950;-82
2023/02/06 20:21:57;;;;;;;;;;;;;;;2.19;65.46;101861.31;1087976;54;19954;-81
2023/02/06 20:22:58;;;;;;;;;;;;;;;2.23;65.31;101870.88;1087789;54;19958;-81
2023/02/06 20:24:03;;;;;;;;;;;;;;;2.29;65.18;101870.69;1087795;54;19951;-81
2023/02/06 20:25:05;;;;;;;;;;;;;;;2.25;65.55;101878.75;1087846;54;19950;-80
2023/02/06 20:26:09;;;;;;;;;;;;;;;2.21;65.54;101880.59;1088109;47;19946;-81
2023/02/06 20:27:14;;;;;;;;;;;;;;;2.15;65.65;101880.81;1087858;54;19942;-83
2023/02/06 20:28:15;;;;;;;;;;;;;;;2.16;65.62;101885.16;1087766;54;19942;-82
2023/02/06 20:29:21;;;;;;;;;;;;;;;2.16;65.71;101882.53;1087833;54;19938;-83
2023/02/06 20:30:28;;;;;;;;;;;;;;;2.13;65.91;101869.41;1088772;39;20439;-79
2023/02/06 20:31:29;;;;;;;;;;;;;;;2.11;65.85;101872.13;1087920;54;19966;-82
2023/02/06 20:32:33;;;;;;;;;;;;;;;2.14;66.25;101868.50;1087824;54;19942;-82
2023/02/06 20:33:37;;;;;;;;;;;;;;;2.12;66.08;101881.75;1087813;54;19950;-83
2023/02/06 20:34:40;;;;;;;;;;;;;;;2.08;66.44;101874.84;1088058;54;19935;-83
2023/02/06 20:35:43;;;;;;;;;;;;;;;2.09;66.41;101875.69;1087994;54;19934;-81
2023/02/06 20:36:47;;;;;;;;;;;;;;;2.11;66.11;101866.84;1088015;54;19965;-81
2023/02/06 20:37:51;;;;;;;;;;;;;;;2.11;66.19;101877.38;1088060;54;19934;-82
2023/02/06 20:38:54;;;;;;;;;;;;;;;2.08;66.35;101872.19;1088097;54;19942;-82
2023/02/06 20:39:59;;;;;;;;;;;;;;;2.03;66.26;101864.41;1088105;54;19947;-82
2023/02/06 20:41:00;;;;;;;;;;;;;;;1.98;66.55;101871.63;1088068;54;19942;-82
2023/02/06 20:42:04;;;;;;;;;;;;;;;2.01;66.72;101873.28;1088122;54;19950;-82
2023/02/06 20:43:09;;;;;;;;;;;;;;;2.02;66.58;101865.31;1089723;47;19943;-82
2023/02/06 20:44:11;;;;;;;;;;;;;;;1.99;66.71;101869.81;1090253;46;19957;-83
2023/02/06 20:45:14;;;;;;;;;;;;;;;1.97;66.81;101882.19;1088485;54;19998;-83
2023/02/06 20:46:20;;;;;;;;;;;;;;;1.95;66.92;101871.69;1088545;54;19956;-83
2023/02/06 20:47:23;;;;;;;;;;;;;;;1.93;67.10;101873.50;1088904;46;19942;-83
2023/02/06 20:48:24;;;;;;;;;;;;;;;1.97;66.83;101875.16;1088376;54;19950;-82
2023/02/06 20:49:29;;;;;;;;;;;;;;;1.98;67.05;101876.88;1088438;54;20588;-82
2023/02/06 20:50:32;;;;;;;;;;;;;;;1.95;67.12;101869.06;1088313;54;19966;-81
2023/02/06 20:51:37;;;;;;;;;;;;;;;2.00;66.95;101869.78;1088286;54;19946;-82
2023/02/06 20:52:40;;;;;;;;;;;;;;;1.94;67.40;101861.16;1088317;54;20760;-82
2023/02/06 20:53:42;;;;;;;;;;;;;;;1.94;67.28;101863.81;1088118;54;19942;-82
2023/02/06 20:54:45;;;;;;;;;;;;;;;1.89;67.29;101874.50;1088202;54;19950;-81
2023/02/06 20:55:46;;;;;;;;;;;;;;;1.88;67.29;101867.50;1088112;54;19935;-82
2023/02/06 20:56:50;;;;;;;;;;;;;;;1.86;67.36;101862.25;1088255;54;20608;-83
2023/02/06 20:57:54;;;;;;;;;;;;;;;1.86;67.63;101866.69;1088126;54;19962;-82
2023/02/06 20:58:56;;;;;;;;;;;;;;;1.87;67.67;101855.22;1089437;39;20439;-83
2023/02/06 21:00:00;;;;;;;;;;;;;;;1.87;67.66;101869.28;1087997;54;20817;-83
2023/02/06 21:01:01;;;;;;;;;;;;;;;1.83;67.89;101866.75;1088044;54;20440;-83
2023/02/06 21:02:07;;;;;;;;;;;;;;;1.84;67.99;101866.72;1087877;54;20519;-83
2023/02/06 21:03:09;;;;;;;;;;;;;;;1.83;67.73;101864.13;1087689;54;19966;-82
2023/02/06 21:04:13;;;;;;;;;;;;;;;1.83;67.82;101862.38;1088114;54;19943;-83
2023/02/06 21:05:17;;;;;;;;;;;;;;;1.80;67.95;101867.72;1093845;39;20661;-83
2023/02/06 21:06:20;;;;;;;;;;;;;;;1.78;68.25;101864.25;1088286;54;19970;-84
2023/02/06 21:07:24;;;;;;;;;;;;;;;1.77;68.34;101861.66;1088195;54;19946;-83
2023/02/06 21:08:25;;;;;;;;;;;;;;;1.78;68.23;101861.63;1094848;39;20576;-82
2023/02/06 21:09:29;;;;;;;;;;;;;;;1.76;68.43;101866.06;1088327;54;19943;-83
2023/02/06 21:10:30;;;;;;;;;;;;;;;1.76;68.56;101868.69;1088411;54;19942;-82
2023/02/06 21:11:35;;;;;;;;;;;;;;;1.75;68.46;101869.59;1088104;54;19927;-83
2023/02/06 21:12:39;;;;;;;;;;;;;;;1.73;68.56;101866.16;1088307;54;19966;-84
2023/02/06 21:13:42;;;;;;;;;;;;;;;1.76;68.74;101862.56;1088123;54;19938;-83
2023/02/06 21:14:46;;;;;;;;;;;;;;;1.74;68.81;101860.00;1088227;54;19966;-83
2023/02/06 21:15:51;;;;;;;;;;;;;;;1.68;68.90;101866.31;1088271;54;19927;-82
2023/02/06 21:16:54;;;;;;;;;;;;;;;1.70;68.88;101858.34;1088390;54;19962;-84
2023/02/06 21:18:01;;;;;;;;;;;;;;;1.68;69.09;101863.66;1088419;54;20503;-83
2023/02/06 21:19:03;;;;;;;;;;;;;;;1.65;69.26;101853.19;1088172;54;19935;-82
2023/02/06 21:20:08;;;;;;;;;;;;;;;1.63;69.40;101857.63;1088126;54;19950;-80
2023/02/06 21:21:10;;;;;;;;;;;;;;;1.64;69.21;101856.72;1088258;54;19949;-82
2023/02/06 21:22:14;;;;;;;;;;;;;;;1.66;69.38;101854.03;1090396;39;20462;-83
2023/02/06 21:23:16;;;;;;;;;;;;;;;1.60;69.51;101860.38;1088221;54;19943;-81
2023/02/06 21:24:20;;;;;;;;;;;;;;;1.59;69.60;101849.84;1088500;54;19943;-82
2023/02/06 21:25:24;;;;;;;;;;;;;;;1.60;69.62;101849.84;1088337;54;19966;-82
2023/02/06 21:26:28;;;;;;;;;;;;;;;1.59;69.86;101845.47;1090847;39;20368;-86
2023/02/06 21:27:33;;;;;;;;;;;;;;;1.58;69.56;101850.75;1088385;54;19954;-81
2023/02/06 21:28:35;;;;;;;;;;;;;;;1.58;69.83;101851.63;1088193;54;19950;-82
2023/02/06 21:29:38;;;;;;;;;;;;;;;1.59;69.64;101845.47;1088281;54;19922;-82
2023/02/06 21:30:39;;;;;;;;;;;;;;;1.53;70.17;101853.53;1088126;54;19943;-81
2023/02/06 21:31:44;;;;;;;;;;;;;;;1.55;70.22;101849.97;1089339;39;20797;-81
2023/02/06 21:32:46;;;;;;;;;;;;;;;1.59;70.16;101848.09;1088005;54;19953;-82
2023/02/06 21:33:52;;;;;;;;;;;;;;;1.60;70.04;101844.56;1088311;54;19954;-82
2023/02/06 21:34:56;;;;;;;;;;;;;;;1.57;70.02;101842.00;1088230;54;19942;-83
2023/02/06 21:35:57;;;;;;;;;;;;;;;1.61;70.10;101851.53;1087661;54;19958;-80
2023/02/06 21:37:01;;;;;;;;;;;;;;;1.59;70.05;101848.09;1088661;39;20193;-81
2023/02/06 21:38:02;;;;;;;;;;;;;;;1.64;69.82;101851.47;1089634;39;20470;-81
2023/02/06 21:39:06;;;;;;;;;;;;;;;1.59;70.11;101848.09;1088080;54;19994;-81
2023/02/06 21:40:14;;;;;;;;;;;;;;;1.59;70.13;101837.56;1087963;54;19950;-82
2023/02/06 21:41:17;;;;;;;;;;;;;;;1.64;70.14;101843.56;1088026;54;19950;-83
2023/02/06 21:42:25;;;;;;;;;;;;;;;1.70;69.96;101838.09;1088839;46;20209;-80
2023/02/06 21:43:26;;;;;;;;;;;;;;;1.73;69.57;101833.66;1087718;54;19943;-81
2023/02/06 21:44:29;;;;;;;;;;;;;;;1.70;69.64;101838.09;1087964;54;20003;-80
2023/02/06 21:45:30;;;;;;;;;;;;;;;1.69;69.97;101839.03;1087746;54;19938;-81
2023/02/06 21:46:35;;;;;;;;;;;;;;;1.65;70.02;101832.09;1087828;54;19950;-81
2023/02/06 21:47:36;;;;;;;;;;;;;;;1.64;69.99;101840.06;1087770;54;19966;-81
2023/02/06 21:48:39;;;;;;;;;;;;;;;1.68;69.82;101841.69;1087816;54;19946;-80
2023/02/06 21:49:46;;;;;;;;;;;;;;;1.61;70.03;101846.25;1087758;54;19926;-81
2023/02/06 21:50:47;;;;;;;;;;;;;;;1.61;70.32;101851.53;1087724;54;19939;-81
2023/02/06 21:51:51;;;;;;;;;;;;;;;1.69;70.07;101852.22;1088168;39;20393;-81
2023/02/06 21:52:52;;;;;;;;;;;;;;;1.73;70.04;101844.19;1087737;54;19974;-80
2023/02/06 21:53:57;;;;;;;;;;;;;;;1.76;69.71;101839.69;1087367;54;19951;-81
2023/02/06 21:55:01;;;;;;;;;;;;;;;1.74;69.73;101841.53;1087649;54;19951;-80
2023/02/06 21:56:03;;;;;;;;;;;;;;;1.76;69.62;101841.47;1087833;54;19950;-80
2023/02/06 21:57:07;;;;;;;;;;;;;;;1.74;69.86;101844.16;1087896;54;19950;-81
2023/02/06 21:58:08;;;;;;;;;;;;;;;1.80;69.74;101845.75;1087607;54;19943;-81
2023/02/06 21:59:13;;;;;;;;;;;;;;;1.82;69.56;101849.19;1087622;54;19950;-80
2023/02/06 22:00:14;;;;;;;;;;;;;;;1.82;69.47;101849.19;1087565;54;19942;-81
2023/02/06 22:01:20;;;;;;;;;;;;;;;1.83;69.34;101856.22;1087556;54;19946;-80
2023/02/06 22:02:24;;;;;;;;;;;;;;;1.83;69.37;101857.09;1087778;54;19938;-81
2023/02/06 22:03:25;;;;;;;;;;;;;;;1.90;69.56;101851.63;1087917;54;19957;-81
2023/02/06 22:04:29;;;;;;;;;;;;;;;1.99;69.17;101859.28;1087579;54;19950;-81
2023/02/06 22:05:32;;;;;;;;;;;;;;;1.97;68.92;101856.69;1087713;54;19958;-80
2023/02/06 22:06:37;;;;;;;;;;;;;;;2.01;68.92;101860.09;1087513;54;20016;-78
2023/02/06 22:07:40;;;;;;;;;;;;;;;2.02;68.79;101862.69;1087542;54;19950;-80
2023/02/06 22:08:43;;;;;;;;;;;;;;;2.06;68.79;101867.88;1087390;54;19923;-81
2023/02/06 22:09:46;;;;;;;;;;;;;;;2.09;68.56;101859.84;1087753;39;20376;-80
2023/02/06 22:10:48;;;;;;;;;;;;;;;2.08;68.58;101861.63;1087437;54;19938;-80
2023/02/06 22:11:52;;;;;;;;;;;;;;;2.05;68.54;101874.91;1087191;54;19950;-80
2023/02/06 22:12:54;;;;;;;;;;;;;;;1.97;68.79;101864.59;1087728;54;19954;-80
2023/02/06 22:13:59;;;;;;;;;;;;;;;1.93;68.82;101877.94;1087473;54;19953;-81
2023/02/06 22:15:00;;;;;;;;;;;;;;;1.96;69.36;101870.78;1087547;54;19953;-81
2023/02/06 22:16:04;;;;;;;;;;;;;;;2.00;68.84;101868.91;1088085;39;20341;-80
2023/02/06 22:17:05;;;;;;;;;;;;;;;1.97;69.01;101863.72;1088260;46;19942;-81
2023/02/06 22:18:09;;;;;;;;;;;;;;;2.00;69.10;101863.66;1087623;54;19946;-81
2023/02/06 22:19:12;;;;;;;;;;;;;;;2.01;69.00;101853.03;1087664;54;19946;-80
2023/02/06 22:20:14;;;;;;;;;;;;;;;1.94;68.90;101842.69;1087503;54;19942;-80
2023/02/06 22:21:23;;;;;;;;;;;;;;;1.90;69.19;101841.06;1087182;54;19954;-80
2023/02/06 22:22:24;;;;;;;;;;;;;;;1.91;69.22;101843.66;1087413;54;19951;-79
2023/02/06 22:23:29;;;;;;;;;;;;;;;1.85;69.46;101831.50;1090236;46;20523;-81
2023/02/06 22:24:33;;;;;;;;;;;;;;;1.83;69.28;101848.31;1087411;54;19949;-80
2023/02/06 22:25:34;;;;;;;;;;;;;;;1.77;69.75;101840.56;1087531;54;19949;-80
2023/02/06 22:26:40;;;;;;;;;;;;;;;1.82;69.71;101836.91;1087770;54;20499;-81
2023/02/06 22:27:42;;;;;;;;;;;;;;;1.88;69.43;101838.50;1087514;54;19950;-81
2023/02/06 22:28:46;;;;;;;;;;;;;;;1.78;69.57;101843.16;1087418;54;19946;-81
2023/02/06 22:29:50;;;;;;;;;;;;;;;1.81;69.96;101847.47;1087414;54;19950;-81
2023/02/06 22:30:51;;;;;;;;;;;;;;;1.74;70.16;101845.94;1087474;46;19943;-81
2023/02/06 22:31:55;;;;;;;;;;;;;;;1.73;70.27;101844.19;1087524;54;19982;-80
2023/02/06 22:32:56;;;;;;;;;;;;;;;1.76;70.03;101844.13;1087537;54;19953;-81
2023/02/06 22:34:00;;;;;;;;;;;;;;;1.76;70.29;101838.84;1087430;54;19947;-81
2023/02/06 22:35:02;;;;;;;;;;;;;;;1.73;70.46;101850.34;1087225;54;20655;-81
2023/02/06 22:36:06;;;;;;;;;;;;;;;1.76;70.16;101842.31;1087181;54;19950;-81
2023/02/06 22:37:12;;;;;;;;;;;;;;;1.71;70.39;101837.19;1087518;54;19942;-81
2023/02/06 22:38:13;;;;;;;;;;;;;;;1.70;70.56;101846.00;1087345;54;19965;-81
2023/02/06 22:39:17;;;;;;;;;;;;;;;1.69;70.59;101836.38;1087275;54;19947;-81
2023/02/06 22:40:21;;;;;;;;;;;;;;;1.69;70.58;101839.03;1087524;54;19943;-80
2023/02/06 22:41:22;;;;;;;;;;;;;;;1.69;70.88;101836.38;1087454;54;19957;-81
2023/02/06 22:42:26;;;;;;;;;;;;;;;1.63;70.75;101836.53;1087322;54;20442;-80
2023/02/06 22:43:27;;;;;;;;;;;;;;;1.70;70.83;101832.81;1087592;54;19977;-82
2023/02/06 22:44:31;;;;;;;;;;;;;;;1.71;70.71;101838.97;1087805;54;20464;-79
2023/02/06 22:45:33;;;;;;;;;;;;;;;1.68;70.89;101842.56;1087764;54;19957;-81
2023/02/06 22:46:37;;;;;;;;;;;;;;;1.68;70.93;101841.69;1087386;54;19951;-82
2023/02/06 22:47:39;;;;;;;;;;;;;;;1.68;70.85;101842.56;1087597;54;19957;-80
2023/02/06 22:48:42;;;;;;;;;;;;;;;1.74;70.53;101838.00;1087277;54;19947;-81
2023/02/06 22:49:44;;;;;;;;;;;;;;;1.69;70.84;101843.41;1087601;54;19923;-81
2023/02/06 22:50:48;;;;;;;;;;;;;;;1.68;70.84;101850.47;1087209;54;19973;-81
2023/02/06 22:51:52;;;;;;;;;;;;;;;1.75;70.75;101848.50;1087451;54;20228;-81
2023/02/06 22:54:15;;;;;;;;;;;;;;;1.90;70.36;101849.84;1087458;54;19974;-80
2023/02/06 22:55:16;;;;;;;;;;;;;;;1.95;70.00;101860.25;1087960;54;19957;-82
2023/02/06 22:56:31;;;;;;;;;;;;;;;1.94;69.73;101861.16;1088102;54;19946;-82
2023/02/06 22:57:36;;;;;;;;;;;;;;;1.84;69.83;101871.13;1089558;46;19995;-82
2023/02/06 22:58:37;;;;;;;;;;;;;;;1.80;69.90;101866.84;1088149;54;19938;-82
2023/02/06 22:59:40;;;;;;;;;;;;;;;1.79;69.98;101865.97;1089756;46;20081;-81
2023/02/06 23:00:42;;;;;;;;;;;;;;;1.76;69.83;101865.22;1092739;39;20612;-83
2023/02/06 23:01:46;;;;;;;;;;;;;;;1.70;70.31;101872.38;1087808;54;19942;-79
2023/02/06 23:02:47;;;;;;;;;;;;;;;1.71;70.36;101868.84;1086514;54;19947;-80
2023/02/06 23:03:52;;;;;;;;;;;;;;;1.71;70.13;101876.75;1086125;54;19947;-80